Time;durP1;ratioP1;P1;durP2;ratioP2;P2;SDS_P1;SDS_P2;PMS_P1;PMS_P2;Temp;Humidity;BMP_temperature;BMP_pressure;BME280_temperature;BME280_humidity;BME280_pressure;Samples;Min_cycle;Max_cycle;Signal;HPM_P1;HPM_P2
2023/05/23 00:01:36;;;;;;;4.07;1.10;;;;;;;;;;5032409;28;20029;-69
2023/05/23 00:04:03;;;;;;;2.95;0.90;;;;;;;;;;5029569;28;20033;-70
2023/05/23 00:06:30;;;;;;;3.42;1.00;;;;;;;;;;5030505;28;20114;-69
2023/05/23 00:08:56;;;;;;;3.75;0.98;;;;;;;;;;5024587;28;20041;-64
2023/05/23 00:11:25;;;;;;;2.75;0.88;;;;;;;;;;5030712;28;20052;-66
2023/05/23 00:13:59;;;;;;;3.42;0.95;;;;;;;;;;5029574;28;20048;-66
2023/05/23 00:16:26;;;;;;;2.90;0.90;;;;;;;;;;5023987;28;20052;-66
2023/05/23 00:18:57;;;;;;;3.58;0.90;;;;;;;;;;5013812;28;20045;-67
2023/05/23 00:21:26;;;;;;;3.45;1.00;;;;;;;;;;5030563;28;20032;-68
2023/05/23 00:23:52;;;;;;;2.88;0.82;;;;;;;;;;5030155;28;20033;-67
2023/05/23 00:26:20;;;;;;;3.33;1.10;;;;;;;;;;5027870;28;20051;-67
2023/05/23 00:28:47;;;;;;;6.70;1.10;;;;;;;;;;5029179;28;20501;-62
2023/05/23 00:31:13;;;;;;;4.90;1.10;;;;;;;;;;5029571;28;20032;-61
2023/05/23 00:33:40;;;;;;;2.45;0.90;;;;;;;;;;5030267;28;20029;-59
2023/05/23 00:36:06;;;;;;;3.78;1.20;;;;;;;;;;5031745;28;20075;-60
2023/05/23 00:38:33;;;;;;;4.30;0.90;;;;;;;;;;5030477;28;20492;-63
2023/05/23 00:41:00;;;;;;;3.28;1.00;;;;;;;;;;5029802;28;20486;-64
2023/05/23 00:43:28;;;;;;;3.85;0.90;;;;;;;;;;5029331;28;20180;-68
2023/05/23 00:45:54;;;;;;;2.97;0.90;;;;;;;;;;5029922;28;20111;-66
2023/05/23 00:48:21;;;;;;;2.75;0.82;;;;;;;;;;5030524;28;20033;-63
2023/05/23 00:50:48;;;;;;;2.70;0.90;;;;;;;;;;5029623;28;20033;-66
2023/05/23 00:53:15;;;;;;;2.78;0.80;;;;;;;;;;5029895;28;20028;-65
2023/05/23 00:55:43;;;;;;;2.63;0.90;;;;;;;;;;5029974;28;20032;-64
2023/05/23 00:58:10;;;;;;;3.28;0.90;;;;;;;;;;5029991;28;20042;-65
2023/05/23 01:00:37;;;;;;;3.75;0.70;;;;;;;;;;5030575;28;20117;-65
2023/05/23 01:03:04;;;;;;;6.68;1.20;;;;;;;;;;5028380;28;21679;-64
2023/05/23 01:05:31;;;;;;;5.70;1.00;;;;;;;;;;5030795;28;20539;-65
2023/05/23 01:07:58;;;;;;;2.70;0.88;;;;;;;;;;5030067;28;20136;-66
2023/05/23 01:10:29;;;;;;;2.53;0.70;;;;;;;;;;5029917;28;20448;-67
2023/05/23 01:13:05;;;;;;;4.65;1.00;;;;;;;;;;5029173;28;20110;-67
2023/05/23 01:15:38;;;;;;;2.30;0.90;;;;;;;;;;5028918;28;20045;-67
2023/05/23 01:18:07;;;;;;;3.50;0.95;;;;;;;;;;5030112;28;20041;-68
2023/05/23 01:20:52;;;;;;;3.38;0.80;;;;;;;;;;5029173;28;20526;-68
2023/05/23 01:23:54;;;;;;;3.03;0.80;;;;;;;;;;5029154;28;20078;-66
2023/05/23 01:26:38;;;;;;;2.53;0.80;;;;;;;;;;4968152;28;20103;-66
2023/05/23 01:29:11;;;;;;;2.83;0.90;;;;;;;;;;5024767;28;20137;-67
2023/05/23 01:31:42;;;;;;;4.20;0.90;;;;;;;;;;5030042;28;20039;-67
2023/05/23 01:34:09;;;;;;;3.60;1.00;;;;;;;;;;5028678;28;20045;-66
2023/05/23 01:36:40;;;;;;;2.55;0.75;;;;;;;;;;5030239;28;21938;-65
2023/05/23 01:39:06;;;;;;;2.92;0.80;;;;;;;;;;5031322;28;20034;-66
2023/05/23 01:41:33;;;;;;;3.03;0.80;;;;;;;;;;5028692;28;20033;-68
2023/05/23 01:44:00;;;;;;;2.78;0.75;;;;;;;;;;5028053;28;20037;-68
2023/05/23 01:46:27;;;;;;;2.70;0.80;;;;;;;;;;5028909;28;20120;-67
2023/05/23 01:48:55;;;;;;;3.13;0.77;;;;;;;;;;5028526;28;20042;-68
2023/05/23 01:51:22;;;;;;;2.58;0.80;;;;;;;;;;5029235;28;20065;-67
2023/05/23 01:53:50;;;;;;;5.63;0.82;;;;;;;;;;5024526;28;20048;-68
2023/05/23 01:56:17;;;;;;;2.75;0.82;;;;;;;;;;5026619;28;20048;-67
2023/05/23 01:58:44;;;;;;;2.88;0.80;;;;;;;;;;5032536;28;20056;-66
2023/05/23 02:01:11;;;;;;;2.58;0.85;;;;;;;;;;5032911;28;20774;-67
2023/05/23 02:03:37;;;;;;;2.15;0.63;;;;;;;;;;5032122;28;20041;-67
2023/05/23 02:06:04;;;;;;;4.72;0.77;;;;;;;;;;5026342;28;21684;-68
2023/05/23 02:08:31;;;;;;;3.05;0.77;;;;;;;;;;5032981;28;20075;-67
2023/05/23 02:10:57;;;;;;;2.25;0.60;;;;;;;;;;5030444;28;20040;-67
2023/05/23 02:13:24;;;;;;;3.80;1.02;;;;;;;;;;5031250;28;20390;-67
2023/05/23 02:15:51;;;;;;;4.25;1.00;;;;;;;;;;5032893;28;20028;-65
2023/05/23 02:18:18;;;;;;;2.35;0.70;;;;;;;;;;5033045;28;20045;-65
2023/05/23 02:20:44;;;;;;;3.55;0.80;;;;;;;;;;5032993;28;20033;-63
2023/05/23 02:23:11;;;;;;;4.75;0.90;;;;;;;;;;5029899;28;20033;-69
2023/05/23 02:25:38;;;;;;;2.17;0.80;;;;;;;;;;5033035;28;20035;-69
2023/05/23 02:28:04;;;;;;;4.10;1.40;;;;;;;;;;5031810;28;20490;-69
2023/05/23 02:30:31;;;;;;;5.20;1.60;;;;;;;;;;5030799;28;20281;-68
2023/05/23 02:32:58;;;;;;;5.13;2.10;;;;;;;;;;5030877;28;20056;-70
2023/05/23 02:35:24;;;;;;;7.28;3.63;;;;;;;;;;5027721;28;20038;-69
2023/05/23 02:37:52;;;;;;;9.68;4.45;;;;;;;;;;5033008;28;20180;-69
2023/05/23 02:40:19;;;;;;;11.30;4.53;;;;;;;;;;5031851;28;20053;-68
2023/05/23 02:42:46;;;;;;;9.73;4.68;;;;;;;;;;5030187;28;20068;-69
2023/05/23 02:45:12;;;;;;;13.20;6.30;;;;;;;;;;5031553;28;20044;-69
2023/05/23 02:47:39;;;;;;;12.30;6.28;;;;;;;;;;5032841;28;20105;-68
2023/05/23 02:50:06;;;;;;;15.95;7.00;;;;;;;;;;5014800;28;20043;-69
2023/05/23 02:52:32;;;;;;;15.52;7.35;;;;;;;;;;5029804;28;20047;-69
2023/05/23 02:54:59;;;;;;;14.15;7.70;;;;;;;;;;5025008;28;20105;-68
2023/05/23 02:57:26;;;;;;;16.98;8.70;;;;;;;;;;5025164;28;20048;-68
2023/05/23 02:59:55;;;;;;;18.98;9.75;;;;;;;;;;5026150;28;20037;-69
2023/05/23 03:02:22;;;;;;;19.40;10.40;;;;;;;;;;5031077;28;20586;-69
2023/05/23 03:04:49;;;;;;;22.67;11.10;;;;;;;;;;5030948;28;20039;-68
2023/05/23 03:07:16;;;;;;;20.00;9.43;;;;;;;;;;5031413;28;20040;-67
2023/05/23 03:09:43;;;;;;;20.80;11.15;;;;;;;;;;5030574;28;20048;-67
2023/05/23 03:12:10;;;;;;;18.92;10.98;;;;;;;;;;5028229;28;20481;-68
2023/05/23 03:14:36;;;;;;;25.55;11.90;;;;;;;;;;5030367;28;20059;-69
2023/05/23 03:17:03;;;;;;;21.42;11.48;;;;;;;;;;5032169;28;20049;-68
2023/05/23 03:19:30;;;;;;;24.50;12.82;;;;;;;;;;5027420;28;20041;-68
2023/05/23 03:21:56;;;;;;;20.10;11.30;;;;;;;;;;5032427;28;20056;-68
2023/05/23 03:24:23;;;;;;;21.27;11.52;;;;;;;;;;5006331;28;20079;-69
2023/05/23 03:26:50;;;;;;;21.42;11.30;;;;;;;;;;5025826;28;20052;-68
2023/05/23 03:29:16;;;;;;;19.92;9.98;;;;;;;;;;5030822;28;20064;-71
2023/05/23 03:31:43;;;;;;;17.45;9.88;;;;;;;;;;5029856;28;20069;-68
2023/05/23 03:34:10;;;;;;;20.73;10.88;;;;;;;;;;5029359;28;20608;-68
2023/05/23 03:36:38;;;;;;;21.50;11.10;;;;;;;;;;5031241;28;20050;-68
2023/05/23 03:39:05;;;;;;;19.30;10.38;;;;;;;;;;5033603;28;20049;-67
2023/05/23 03:41:31;;;;;;;20.67;10.82;;;;;;;;;;5034700;28;20034;-68
2023/05/23 03:43:59;;;;;;;23.50;11.35;;;;;;;;;;5029526;28;20041;-68
2023/05/23 03:46:26;;;;;;;17.20;9.85;;;;;;;;;;5029744;28;20045;-69
2023/05/23 03:48:53;;;;;;;17.70;9.82;;;;;;;;;;5029648;28;20033;-65
2023/05/23 03:51:20;;;;;;;18.83;9.70;;;;;;;;;;5024794;28;20054;-68
2023/05/23 03:53:46;;;;;;;20.60;10.52;;;;;;;;;;5030660;28;20061;-67
2023/05/23 03:56:13;;;;;;;21.25;10.45;;;;;;;;;;5028860;28;20072;-69
2023/05/23 03:58:39;;;;;;;21.85;10.30;;;;;;;;;;5032391;28;20055;-68
2023/05/23 04:01:06;;;;;;;20.38;11.38;;;;;;;;;;5034558;28;20502;-69
2023/05/23 04:03:33;;;;;;;17.02;9.90;;;;;;;;;;5029150;28;20044;-68
2023/05/23 04:06:00;;;;;;;21.95;11.02;;;;;;;;;;5030994;28;20152;-68
2023/05/23 04:08:28;;;;;;;18.27;10.00;;;;;;;;;;5030973;28;20094;-67
2023/05/23 04:10:58;;;;;;;26.63;10.13;;;;;;;;;;5021931;28;20087;-69
2023/05/23 04:13:25;;;;;;;17.67;8.77;;;;;;;;;;5028718;28;20374;-66
2023/05/23 04:15:51;;;;;;;16.95;8.07;;;;;;;;;;5031683;28;20389;-67
2023/05/23 04:18:18;;;;;;;13.23;7.45;;;;;;;;;;5030978;28;20053;-65
2023/05/23 04:20:46;;;;;;;13.98;7.25;;;;;;;;;;5032787;28;20052;-66
2023/05/23 04:23:12;;;;;;;11.45;4.53;;;;;;;;;;5028569;28;20044;-66
2023/05/23 04:25:39;;;;;;;6.90;3.30;;;;;;;;;;5030352;28;20121;-66
2023/05/23 04:28:09;;;;;;;6.57;3.05;;;;;;;;;;5029678;28;20044;-66
2023/05/23 04:30:35;;;;;;;5.65;2.42;;;;;;;;;;5028586;28;20090;-68
2023/05/23 04:33:02;;;;;;;5.07;2.17;;;;;;;;;;5010359;28;20516;-67
2023/05/23 04:35:29;;;;;;;7.85;2.88;;;;;;;;;;5028234;28;20029;-68
2023/05/23 04:37:56;;;;;;;8.40;2.38;;;;;;;;;;5026061;28;20037;-69
2023/05/23 04:40:23;;;;;;;4.68;1.92;;;;;;;;;;5024065;28;20388;-68
2023/05/23 04:42:53;;;;;;;4.13;1.52;;;;;;;;;;5028429;28;20033;-68
2023/05/23 04:45:19;;;;;;;3.47;1.17;;;;;;;;;;5029457;28;20541;-68
2023/05/23 04:47:46;;;;;;;4.70;1.50;;;;;;;;;;5024650;28;20380;-69
2023/05/23 04:50:17;;;;;;;3.58;1.40;;;;;;;;;;5029188;28;20128;-67
2023/05/23 04:52:43;;;;;;;3.85;1.33;;;;;;;;;;5029144;28;20146;-67
2023/05/23 04:55:10;;;;;;;4.68;1.50;;;;;;;;;;5023117;28;20430;-69
2023/05/23 04:57:38;;;;;;;7.32;1.48;;;;;;;;;;5012047;28;20048;-65
2023/05/23 05:00:09;;;;;;;5.10;1.05;;;;;;;;;;5010403;28;20071;-67
2023/05/23 05:02:38;;;;;;;3.92;1.17;;;;;;;;;;5027156;28;20510;-69
2023/05/23 05:05:06;;;;;;;5.53;1.33;;;;;;;;;;5022622;28;20076;-69
2023/05/23 05:07:34;;;;;;;5.03;1.05;;;;;;;;;;5028106;28;20046;-67
2023/05/23 05:10:01;;;;;;;3.67;0.95;;;;;;;;;;5026924;28;20037;-69
2023/05/23 05:12:27;;;;;;;4.72;1.10;;;;;;;;;;5004758;28;20065;-68
2023/05/23 05:14:54;;;;;;;6.32;1.23;;;;;;;;;;5011000;28;20498;-68
2023/05/23 05:17:21;;;;;;;4.97;1.15;;;;;;;;;;5005365;28;20149;-67
2023/05/23 05:19:47;;;;;;;2.92;1.20;;;;;;;;;;5009779;28;20045;-69
2023/05/23 05:22:14;;;;;;;3.28;1.20;;;;;;;;;;5009643;28;20038;-69
2023/05/23 05:24:41;;;;;;;3.08;1.20;;;;;;;;;;5007136;28;20041;-68
2023/05/23 05:27:08;;;;;;;4.72;1.10;;;;;;;;;;5007657;28;20558;-66
2023/05/23 05:29:35;;;;;;;3.95;1.35;;;;;;;;;;5009852;28;20473;-68
2023/05/23 05:32:02;;;;;;;5.03;1.50;;;;;;;;;;5013362;28;20040;-70
2023/05/23 05:34:28;;;;;;;3.67;1.40;;;;;;;;;;5011027;28;20068;-66
2023/05/23 05:36:55;;;;;;;3.85;1.60;;;;;;;;;;5012200;28;20474;-67
2023/05/23 05:39:25;;;;;;;4.20;1.60;;;;;;;;;;5012119;28;20157;-67
2023/05/23 05:41:51;;;;;;;5.05;1.63;;;;;;;;;;5011267;28;20038;-67
2023/05/23 05:44:18;;;;;;;5.78;1.67;;;;;;;;;;5011519;28;20501;-67
2023/05/23 05:46:45;;;;;;;4.82;1.60;;;;;;;;;;5010751;28;20052;-66
2023/05/23 05:49:11;;;;;;;4.18;1.73;;;;;;;;;;5012303;28;20111;-66
2023/05/23 05:51:38;;;;;;;4.53;1.80;;;;;;;;;;5020817;28;20042;-66
2023/05/23 05:54:05;;;;;;;3.80;1.50;;;;;;;;;;5009890;28;20141;-66
2023/05/23 05:56:31;;;;;;;3.92;1.27;;;;;;;;;;5021054;28;20128;-66
2023/05/23 05:58:58;;;;;;;4.10;1.40;;;;;;;;;;5010713;28;20054;-68
2023/05/23 06:01:25;;;;;;;5.18;1.40;;;;;;;;;;5011577;28;20029;-68
2023/05/23 06:03:52;;;;;;;3.75;1.20;;;;;;;;;;5011772;28;20452;-67
2023/05/23 06:06:18;;;;;;;4.05;1.40;;;;;;;;;;5011416;28;20034;-67
2023/05/23 06:08:45;;;;;;;3.42;1.20;;;;;;;;;;5009845;28;20457;-67
2023/05/23 06:11:12;;;;;;;4.22;1.00;;;;;;;;;;5012771;28;21153;-67
2023/05/23 06:13:38;;;;;;;3.20;1.00;;;;;;;;;;5024319;28;20191;-66
2023/05/23 06:16:06;;;;;;;3.63;1.10;;;;;;;;;;5031272;28;20076;-66
2023/05/23 06:18:32;;;;;;;2.03;0.90;;;;;;;;;;5030737;28;20053;-66
2023/05/23 06:20:59;;;;;;;3.75;0.90;;;;;;;;;;5032046;28;20465;-67
2023/05/23 06:23:25;;;;;;;2.63;0.82;;;;;;;;;;5024116;28;20036;-66
2023/05/23 06:25:52;;;;;;;2.65;0.90;;;;;;;;;;5033725;28;20037;-67
2023/05/23 06:28:19;;;;;;;2.30;0.70;;;;;;;;;;5031931;28;20049;-66
2023/05/23 06:30:45;;;;;;;2.63;0.95;;;;;;;;;;5010358;28;20113;-65
2023/05/23 06:33:12;;;;;;;3.92;0.90;;;;;;;;;;5031944;28;20045;-67
2023/05/23 06:35:38;;;;;;;2.80;0.90;;;;;;;;;;5029149;28;20029;-67
2023/05/23 06:38:05;;;;;;;2.75;0.90;;;;;;;;;;5025550;28;20052;-66
2023/05/23 06:40:31;;;;;;;3.47;0.88;;;;;;;;;;5032125;28;20346;-66
2023/05/23 06:42:58;;;;;;;3.45;0.80;;;;;;;;;;5022564;28;20099;-65
2023/05/23 06:45:25;;;;;;;2.95;0.90;;;;;;;;;;5030395;28;20133;-67
2023/05/23 06:47:51;;;;;;;3.55;1.00;;;;;;;;;;5032101;28;20052;-65
2023/05/23 06:50:21;;;;;;;3.50;0.90;;;;;;;;;;5013243;28;20045;-67
2023/05/23 06:52:48;;;;;;;4.07;0.98;;;;;;;;;;5025215;28;20029;-66
2023/05/23 06:55:18;;;;;;;4.93;1.08;;;;;;;;;;5029782;28;20136;-67
2023/05/23 06:57:45;;;;;;;3.60;1.15;;;;;;;;;;5025090;28;20053;-66
2023/05/23 07:00:15;;;;;;;4.38;1.20;;;;;;;;;;5031197;28;20045;-68
2023/05/23 07:02:41;;;;;;;3.05;1.08;;;;;;;;;;5029990;28;20044;-67
2023/05/23 07:05:08;;;;;;;3.50;1.35;;;;;;;;;;5025978;28;20045;-66
2023/05/23 07:07:35;;;;;;;4.43;1.23;;;;;;;;;;5032947;28;20521;-67
2023/05/23 07:10:01;;;;;;;3.33;1.13;;;;;;;;;;5031728;28;20756;-67
2023/05/23 07:12:28;;;;;;;3.15;1.02;;;;;;;;;;5030532;28;20190;-67
2023/05/23 07:14:55;;;;;;;3.00;1.00;;;;;;;;;;5032969;28;20029;-68
2023/05/23 07:17:21;;;;;;;3.38;1.17;;;;;;;;;;5029615;28;20084;-68
2023/05/23 07:19:48;;;;;;;3.35;1.00;;;;;;;;;;5029771;28;20144;-66
2023/05/23 07:22:15;;;;;;;3.85;1.00;;;;;;;;;;5031302;28;20854;-67
2023/05/23 07:24:41;;;;;;;2.95;1.02;;;;;;;;;;5032016;28;20037;-67
2023/05/23 07:27:08;;;;;;;3.42;1.10;;;;;;;;;;5032634;28;20037;-66
2023/05/23 07:29:35;;;;;;;3.67;1.27;;;;;;;;;;5024360;28;20045;-66
2023/05/23 07:32:02;;;;;;;5.25;1.45;;;;;;;;;;5029908;28;20037;-66
2023/05/23 07:34:29;;;;;;;4.97;1.38;;;;;;;;;;5026446;28;20045;-66
2023/05/23 07:36:56;;;;;;;4.93;1.45;;;;;;;;;;5030298;28;20041;-68
2023/05/23 07:39:23;;;;;;;3.85;1.17;;;;;;;;;;5030866;28;20045;-68
2023/05/23 07:41:50;;;;;;;3.60;1.40;;;;;;;;;;5024148;28;20486;-68
2023/05/23 07:44:18;;;;;;;3.72;1.50;;;;;;;;;;5031615;28;20477;-69
2023/05/23 07:46:44;;;;;;;4.30;1.92;;;;;;;;;;5023639;28;20092;-67
2023/05/23 07:49:11;;;;;;;3.45;1.55;;;;;;;;;;5033325;28;20040;-66
2023/05/23 07:51:38;;;;;;;4.47;1.77;;;;;;;;;;5029890;28;20038;-68
2023/05/23 07:54:04;;;;;;;4.88;1.80;;;;;;;;;;5032124;28;20097;-67
2023/05/23 07:56:31;;;;;;;5.45;1.70;;;;;;;;;;5033269;28;20782;-67
2023/05/23 07:58:57;;;;;;;3.78;1.60;;;;;;;;;;5030628;28;20096;-67
2023/05/23 08:01:24;;;;;;;4.82;1.80;;;;;;;;;;5011211;28;20033;-67
2023/05/23 08:03:51;;;;;;;4.63;1.88;;;;;;;;;;5023934;28;20036;-67
2023/05/23 08:06:17;;;;;;;6.95;2.10;;;;;;;;;;5014406;28;20041;-67
2023/05/23 08:08:44;;;;;;;5.90;1.83;;;;;;;;;;5032127;28;20040;-65
2023/05/23 08:11:11;;;;;;;6.47;2.17;;;;;;;;;;5014712;28;20044;-67
2023/05/23 08:13:37;;;;;;;5.47;2.33;;;;;;;;;;5030052;28;20052;-68
2023/05/23 08:16:04;;;;;;;5.47;2.10;;;;;;;;;;5026067;28;20064;-67
2023/05/23 08:18:31;;;;;;;5.53;1.95;;;;;;;;;;5024070;28;20511;-67
2023/05/23 08:20:57;;;;;;;4.97;2.20;;;;;;;;;;5007225;28;20133;-68
2023/05/23 08:23:24;;;;;;;4.97;2.10;;;;;;;;;;4993242;28;20135;-67
2023/05/23 08:25:52;;;;;;;5.78;2.42;;;;;;;;;;5009693;28;20037;-68
2023/05/23 08:28:19;;;;;;;6.88;2.42;;;;;;;;;;5012016;28;20858;-67
2023/05/23 08:30:45;;;;;;;8.82;2.50;;;;;;;;;;5012198;28;20073;-69
2023/05/23 08:33:12;;;;;;;6.40;2.83;;;;;;;;;;5010831;28;20531;-68
2023/05/23 08:35:40;;;;;;;6.60;2.90;;;;;;;;;;5023342;28;20124;-67
2023/05/23 08:38:07;;;;;;;6.80;2.80;;;;;;;;;;5024402;28;21383;-67
2023/05/23 08:40:35;;;;;;;8.13;2.63;;;;;;;;;;5013995;28;20038;-67
2023/05/23 08:43:02;;;;;;;6.57;2.83;;;;;;;;;;5012549;28;20041;-67
2023/05/23 08:45:29;;;;;;;5.47;2.58;;;;;;;;;;5011342;28;20501;-67
2023/05/23 08:47:56;;;;;;;6.00;2.50;;;;;;;;;;5012558;28;20352;-65
2023/05/23 08:50:23;;;;;;;6.43;2.95;;;;;;;;;;5011582;28;21794;-66
2023/05/23 08:52:56;;;;;;;4.97;2.50;;;;;;;;;;5011044;28;20041;-66
2023/05/23 08:55:22;;;;;;;;;;;;;;;;;;5011316;28;20200;-68
2023/05/23 08:57:49;;;;;;;6.28;3.03;;;;;;;;;;5011857;28;19983;-68
2023/05/23 09:00:16;;;;;;;7.63;3.47;;;;;;;;;;5011089;28;20033;-67
2023/05/23 09:02:46;;;;;;;9.90;3.95;;;;;;;;;;5010870;28;20038;-67
2023/05/23 09:05:13;;;;;;;8.27;3.72;;;;;;;;;;5013102;28;20135;-67
2023/05/23 09:07:40;;;;;;;8.57;3.65;;;;;;;;;;5016369;28;20492;-67
2023/05/23 09:10:08;;;;;;;7.93;4.13;;;;;;;;;;5015511;28;20033;-67
2023/05/23 09:12:36;;;;;;;10.35;4.43;;;;;;;;;;5010980;28;20053;-67
2023/05/23 09:15:09;;;;;;;8.95;4.30;;;;;;;;;;5012109;28;20132;-68
2023/05/23 09:17:36;;;;;;;;;;;;;;;;;;5012082;28;20637;-67
2023/05/23 09:20:06;;;;;;;9.35;4.55;;;;;;;;;;5008491;28;20792;-69
2023/05/23 09:22:33;;;;;;;10.63;4.55;;;;;;;;;;5009529;28;20017;-69
2023/05/23 09:25:00;;;;;;;9.07;4.43;;;;;;;;;;5009727;28;20037;-66
2023/05/23 09:27:26;;;;;;;7.90;4.53;;;;;;;;;;5020692;28;20057;-67
2023/05/23 09:29:53;;;;;;;9.02;4.22;;;;;;;;;;5008707;28;20061;-69
2023/05/23 09:32:20;;;;;;;12.43;4.65;;;;;;;;;;5008951;28;20022;-66
2023/05/23 09:34:50;;;;;;;11.38;4.55;;;;;;;;;;5009809;28;20125;-66
2023/05/23 09:37:18;;;;;;;11.38;4.18;;;;;;;;;;5010593;28;20092;-67
2023/05/23 09:39:47;;;;;;;9.90;4.00;;;;;;;;;;5011392;28;20030;-67
2023/05/23 09:42:20;;;;;;;7.13;3.65;;;;;;;;;;5009216;28;20542;-66
2023/05/23 09:44:47;;;;;;;8.00;3.88;;;;;;;;;;5010699;28;20033;-66
2023/05/23 09:47:15;;;;;;;12.18;3.85;;;;;;;;;;5011426;28;22197;-69
2023/05/23 09:49:45;;;;;;;9.05;3.67;;;;;;;;;;5009882;28;20034;-67
2023/05/23 09:52:12;;;;;;;6.93;3.67;;;;;;;;;;5008573;28;20036;-67
2023/05/23 09:54:39;;;;;;;7.57;3.50;;;;;;;;;;5010320;28;20038;-67
2023/05/23 09:57:16;;;;;;;6.95;3.55;;;;;;;;;;5008108;28;20080;-67
2023/05/23 09:59:53;;;;;;;8.77;3.53;;;;;;;;;;5008375;28;20046;-67
2023/05/23 10:02:32;;;;;;;7.60;3.63;;;;;;;;;;5009362;28;20030;-66
2023/05/23 10:04:59;;;;;;;8.07;3.72;;;;;;;;;;5008506;28;20505;-66
2023/05/23 10:07:27;;;;;;;6.80;3.75;;;;;;;;;;5009053;28;20099;-66
2023/05/23 10:09:59;;;;;;;13.68;4.13;;;;;;;;;;5008727;28;20039;-67
2023/05/23 10:12:50;;;;;;;7.85;3.90;;;;;;;;;;5008405;28;20045;-68
2023/05/23 10:15:18;;;;;;;5.90;3.33;;;;;;;;;;5011443;28;20047;-66
2023/05/23 10:17:54;;;;;;;8.90;3.70;;;;;;;;;;5014387;28;20451;-67
2023/05/23 10:20:25;;;;;;;6.78;3.63;;;;;;;;;;5012753;28;20048;-67
2023/05/23 10:22:52;;;;;;;8.27;3.60;;;;;;;;;;5012578;28;20033;-67
2023/05/23 10:25:18;;;;;;;8.57;3.60;;;;;;;;;;5014473;28;20044;-68
2023/05/23 10:27:48;;;;;;;6.70;3.65;;;;;;;;;;5021764;28;20068;-67
2023/05/23 10:30:15;;;;;;;6.97;3.63;;;;;;;;;;5013736;28;20029;-67
2023/05/23 10:32:42;;;;;;;7.30;3.00;;;;;;;;;;5010047;28;20036;-69
2023/05/23 10:35:20;;;;;;;6.53;2.75;;;;;;;;;;5022189;28;20029;-68
2023/05/23 10:37:50;;;;;;;6.47;3.10;;;;;;;;;;5013307;28;20140;-69
2023/05/23 10:40:23;;;;;;;5.22;2.80;;;;;;;;;;5011616;28;20465;-67
2023/05/23 10:43:02;;;;;;;8.00;2.95;;;;;;;;;;5012369;28;20135;-67
2023/05/23 10:45:28;;;;;;;6.35;3.10;;;;;;;;;;5013329;28;20490;-68
2023/05/23 10:47:55;;;;;;;7.28;2.90;;;;;;;;;;5012644;28;20408;-68
2023/05/23 10:50:34;;;;;;;5.13;2.58;;;;;;;;;;5022880;28;20081;-66
2023/05/23 10:53:02;;;;;;;10.10;3.10;;;;;;;;;;5011573;28;20116;-68
2023/05/23 10:55:32;;;;;;;6.78;3.17;;;;;;;;;;5012582;28;20030;-67
2023/05/23 10:58:13;;;;;;;8.35;3.65;;;;;;;;;;5011355;28;20083;-68
2023/05/23 11:00:39;;;;;;;7.78;3.63;;;;;;;;;;5011558;28;20041;-70
2023/05/23 11:03:07;;;;;;;7.82;3.83;;;;;;;;;;5012292;28;20040;-67
2023/05/23 11:05:37;;;;;;;8.32;3.53;;;;;;;;;;5012658;28;20038;-67
2023/05/23 11:08:24;;;;;;;8.98;3.80;;;;;;;;;;5011951;28;20030;-67
2023/05/23 11:11:01;;;;;;;7.90;3.65;;;;;;;;;;5011241;28;20038;-67
2023/05/23 11:13:46;;;;;;;7.97;3.28;;;;;;;;;;5011306;28;20542;-65
2023/05/23 11:16:25;;;;;;;8.02;3.70;;;;;;;;;;5011583;28;20064;-66
2023/05/23 11:18:52;;;;;;;8.50;3.97;;;;;;;;;;5011142;28;20437;-66
2023/05/23 11:21:19;;;;;;;7.75;4.18;;;;;;;;;;5011863;28;20508;-67
2023/05/23 11:23:46;;;;;;;10.98;4.40;;;;;;;;;;5012662;28;20041;-66
2023/05/23 11:26:31;;;;;;;9.80;4.13;;;;;;;;;;5011376;28;20036;-65
2023/05/23 11:28:58;;;;;;;9.05;4.50;;;;;;;;;;5010679;28;20088;-67
2023/05/23 11:31:25;;;;;;;10.40;4.70;;;;;;;;;;5012042;28;20029;-66
2023/05/23 11:33:52;;;;;;;13.43;4.75;;;;;;;;;;5011885;28;20032;-66
2023/05/23 11:36:21;;;;;;;8.65;4.50;;;;;;;;;;5010873;28;20053;-67
2023/05/23 11:38:51;;;;;;;14.38;4.85;;;;;;;;;;5011462;28;20041;-66
2023/05/23 11:41:18;;;;;;;11.68;5.18;;;;;;;;;;5011407;28;20022;-68
2023/05/23 11:43:51;;;;;;;10.32;4.63;;;;;;;;;;5011965;28;20119;-67
2023/05/23 11:46:18;;;;;;;8.93;4.78;;;;;;;;;;5012110;28;20722;-66
2023/05/23 11:48:48;;;;;;;11.30;5.05;;;;;;;;;;5009948;28;20178;-66
2023/05/23 11:51:15;;;;;;;9.10;5.05;;;;;;;;;;5009958;28;20077;-65
2023/05/23 11:53:42;;;;;;;10.25;4.93;;;;;;;;;;5021760;28;20391;-66
2023/05/23 11:56:09;;;;;;;13.02;5.18;;;;;;;;;;5012157;28;20599;-67
2023/05/23 11:58:36;;;;;;;11.90;4.82;;;;;;;;;;5009303;28;20822;-66
2023/05/23 12:01:05;;;;;;;12.10;5.20;;;;;;;;;;5011272;28;20084;-67
2023/05/23 12:03:32;;;;;;;14.23;5.75;;;;;;;;;;5022792;28;20033;-67
2023/05/23 12:05:59;;;;;;;11.48;5.60;;;;;;;;;;5008355;28;20406;-65
2023/05/23 12:08:26;;;;;;;10.98;4.85;;;;;;;;;;5020000;28;20502;-66
2023/05/23 12:10:53;;;;;;;10.35;5.25;;;;;;;;;;5009225;28;20399;-67
2023/05/23 12:13:23;;;;;;;11.98;5.68;;;;;;;;;;5011000;28;20284;-68
2023/05/23 12:15:53;;;;;;;14.60;6.10;;;;;;;;;;5009274;28;20037;-67
2023/05/23 12:18:20;;;;;;;15.98;6.30;;;;;;;;;;5020309;28;20072;-67
2023/05/23 12:20:49;;;;;;;13.23;6.07;;;;;;;;;;5009334;28;20038;-68
2023/05/23 12:23:19;;;;;;;15.13;6.15;;;;;;;;;;5010517;28;20025;-68
2023/05/23 12:25:49;;;;;;;13.07;6.00;;;;;;;;;;5011681;28;20108;-66
2023/05/23 12:28:16;;;;;;;14.63;6.70;;;;;;;;;;5010853;28;20556;-64
2023/05/23 12:30:43;;;;;;;13.73;6.50;;;;;;;;;;5009980;28;20033;-64
2023/05/23 12:33:10;;;;;;;14.18;6.47;;;;;;;;;;5009515;28;20147;-67
2023/05/23 12:35:38;;;;;;;13.15;6.50;;;;;;;;;;5010156;28;20029;-67
2023/05/23 12:38:07;;;;;;;12.68;5.82;;;;;;;;;;5020163;28;20040;-68
2023/05/23 12:40:34;;;;;;;13.35;5.20;;;;;;;;;;5009150;28;20026;-68
2023/05/23 12:43:00;;;;;;;10.93;4.25;;;;;;;;;;5008394;28;20037;-68
2023/05/23 12:45:35;;;;;;;13.90;3.72;;;;;;;;;;5010361;28;20030;-67
2023/05/23 12:48:07;;;;;;;7.82;3.20;;;;;;;;;;5009833;28;20025;-67
2023/05/23 12:50:35;;;;;;;9.30;3.00;;;;;;;;;;5020519;28;20398;-65
2023/05/23 12:53:01;;;;;;;6.78;3.22;;;;;;;;;;5010982;28;20376;-69
2023/05/23 12:55:28;;;;;;;7.15;3.03;;;;;;;;;;5008602;28;20030;-68
2023/05/23 12:57:55;;;;;;;10.85;3.28;;;;;;;;;;5010516;28;20664;-69
2023/05/23 13:00:21;;;;;;;6.82;2.70;;;;;;;;;;5010428;28;20026;-66
2023/05/23 13:02:49;;;;;;;6.28;2.78;;;;;;;;;;5019678;28;20021;-67
2023/05/23 13:05:15;;;;;;;6.18;2.60;;;;;;;;;;5009279;28;20033;-66
2023/05/23 13:07:43;;;;;;;9.82;2.35;;;;;;;;;;5011021;28;20029;-67
2023/05/23 13:10:09;;;;;;;7.25;2.28;;;;;;;;;;5011433;28;20112;-64
2023/05/23 13:12:37;;;;;;;4.63;2.13;;;;;;;;;;5014566;28;20124;-67
2023/05/23 13:15:04;;;;;;;5.65;2.40;;;;;;;;;;5009578;28;20025;-69
2023/05/23 13:17:31;;;;;;;5.32;2.25;;;;;;;;;;5011518;28;20058;-62
2023/05/23 13:19:57;;;;;;;5.28;2.58;;;;;;;;;;5021081;28;20132;-64
2023/05/23 13:22:24;;;;;;;9.15;3.83;;;;;;;;;;5020449;28;20033;-65
2023/05/23 13:24:51;;;;;;;11.70;4.20;;;;;;;;;;5010471;28;20091;-63
2023/05/23 13:27:17;;;;;;;8.80;4.40;;;;;;;;;;5009060;28;20084;-65
2023/05/23 13:29:44;;;;;;;11.40;6.20;;;;;;;;;;5009235;28;20164;-65
2023/05/23 13:32:11;;;;;;;10.80;3.67;;;;;;;;;;5019589;28;20038;-67
2023/05/23 13:34:37;;;;;;;5.53;2.10;;;;;;;;;;5008652;28;20087;-66
2023/05/23 13:37:04;;;;;;;4.40;2.00;;;;;;;;;;5009636;28;20113;-67
2023/05/23 13:39:31;;;;;;;4.93;1.75;;;;;;;;;;5010139;28;20041;-65
2023/05/23 13:41:57;;;;;;;5.22;1.83;;;;;;;;;;5009784;28;20048;-65
2023/05/23 13:44:24;;;;;;;4.22;1.75;;;;;;;;;;5009405;28;20464;-67
2023/05/23 13:46:50;;;;;;;7.10;1.90;;;;;;;;;;5008013;28;20038;-65
2023/05/23 13:49:17;;;;;;;5.65;2.08;;;;;;;;;;5010049;28;20719;-68
2023/05/23 13:51:44;;;;;;;5.05;1.70;;;;;;;;;;5012858;28;20033;-67
2023/05/23 13:54:12;;;;;;;5.75;1.70;;;;;;;;;;5012973;28;20044;-64
2023/05/23 13:56:39;;;;;;;5.57;1.90;;;;;;;;;;5014174;28;20037;-65
2023/05/23 13:59:05;;;;;;;9.63;1.80;;;;;;;;;;5013678;28;20041;-68
2023/05/23 14:01:32;;;;;;;6.07;1.60;;;;;;;;;;5011149;28;21597;-66
2023/05/23 14:03:59;;;;;;;5.72;1.75;;;;;;;;;;5013627;28;20034;-66
2023/05/23 14:06:25;;;;;;;4.28;1.70;;;;;;;;;;5012852;28;20030;-66
2023/05/23 14:08:52;;;;;;;5.32;1.45;;;;;;;;;;5014639;28;20057;-67
2023/05/23 14:11:18;;;;;;;5.85;1.70;;;;;;;;;;5013297;28;20429;-67
2023/05/23 14:13:45;;;;;;;5.07;1.77;;;;;;;;;;5011227;28;20053;-66
2023/05/23 14:16:12;;;;;;;5.15;1.65;;;;;;;;;;5014114;28;20033;-66
2023/05/23 14:18:38;;;;;;;5.38;1.38;;;;;;;;;;5013327;28;20132;-65
2023/05/23 14:21:05;;;;;;;3.83;1.30;;;;;;;;;;5012936;28;20030;-67
2023/05/23 14:23:31;;;;;;;3.40;1.10;;;;;;;;;;5014080;28;21701;-65
2023/05/23 14:25:58;;;;;;;3.72;1.10;;;;;;;;;;5011731;28;20123;-66
2023/05/23 14:28:25;;;;;;;3.20;0.80;;;;;;;;;;5012288;28;20025;-68
2023/05/23 14:30:52;;;;;;;2.17;0.70;;;;;;;;;;5012735;28;20173;-66
2023/05/23 14:33:38;;;;;;;3.05;0.90;;;;;;;;;;4976221;28;20042;-67
2023/05/23 14:36:05;;;;;;;3.03;1.10;;;;;;;;;;4988935;28;20038;-65
2023/05/23 14:38:32;;;;;;;2.97;0.70;;;;;;;;;;4989241;28;20435;-67
2023/05/23 14:40:58;;;;;;;2.50;0.73;;;;;;;;;;4969211;28;20032;-65
2023/05/23 14:43:25;;;;;;;3.75;0.80;;;;;;;;;;4988368;28;20096;-65
2023/05/23 14:45:52;;;;;;;4.55;0.73;;;;;;;;;;4988526;28;20040;-65